Time;durP1;ratioP1;P1;durP2;ratioP2;P2;SDS_P1;SDS_P2;PMS_P1;PMS_P2;Temp;Humidity;BMP_temperature;BMP_pressure;BME280_temperature;BME280_humidity;BME280_pressure;Samples;Min_cycle;Max_cycle;Signal;HPM_P1;HPM_P2
2023/09/14 00:02:15;;;;;;;3.43;2.43;;;;;20.50;96890.00;;;;5051147;28;20209;-67
2023/09/14 00:05:05;;;;;;;3.30;2.90;;;;;20.60;96889.00;;;;5044961;28;20910;-67
2023/09/14 00:07:54;;;;;;;4.50;3.20;;;;;20.60;96884.00;;;;5050571;28;20232;-67
2023/09/14 00:10:44;;;;;;;3.03;2.63;;;;;20.60;96887.00;;;;5050826;28;20563;-67
2023/09/14 00:13:33;;;;;;;2.77;2.57;;;;;20.10;96901.00;;;;5050670;28;20204;-67
2023/09/14 00:16:22;;;;;;;4.60;2.80;;;;;20.30;96899.00;;;;5048219;28;20208;-67
2023/09/14 00:19:11;;;;;;;2.90;2.47;;;;;20.40;96898.00;;;;5050340;28;20617;-67
2023/09/14 00:22:00;;;;;;;2.57;2.37;;;;;20.50;96900.00;;;;5046128;28;20588;-67
2023/09/14 00:24:50;;;;;;;2.70;2.10;;;;;20.50;96896.00;;;;5043376;28;20211;-67
2023/09/14 00:27:40;;;;;;;3.93;3.00;;;;;20.60;96896.00;;;;5050251;28;20208;-67
2023/09/14 00:30:29;;;;;;;5.47;2.43;;;;;20.60;96902.00;;;;5049278;28;20208;-67
2023/09/14 00:33:18;;;;;;;3.40;2.60;;;;;20.40;96903.00;;;;5049385;28;20192;-67
2023/09/14 00:36:07;;;;;;;4.73;2.63;;;;;20.00;96897.00;;;;5044163;28;20580;-67
2023/09/14 00:38:56;;;;;;;5.90;2.90;;;;;19.80;96898.00;;;;5044349;28;20228;-67
2023/09/14 00:41:45;;;;;;;2.37;2.10;;;;;20.20;96910.00;;;;5049027;28;20212;-68
2023/09/14 00:44:35;;;;;;;2.93;2.30;;;;;20.30;96908.00;;;;5049145;28;20204;-68
2023/09/14 00:47:24;;;;;;;2.47;2.27;;;;;20.40;96922.00;;;;5048247;28;20235;-68
2023/09/14 00:50:15;;;;;;;3.27;2.97;;;;;20.30;96916.00;;;;5049297;28;20197;-67
2023/09/14 00:53:06;;;;;;;2.93;2.63;;;;;20.40;96920.00;;;;5048071;28;20208;-67
2023/09/14 00:55:56;;;;;;;3.70;2.87;;;;;20.60;96913.00;;;;5046390;28;20918;-68
2023/09/14 00:58:47;;;;;;;5.60;2.77;;;;;20.60;96915.00;;;;5049112;28;20243;-67
2023/09/14 01:01:37;;;;;;;2.63;2.40;;;;;20.60;96918.00;;;;5047434;28;20233;-67
2023/09/14 01:04:29;;;;;;;2.40;2.20;;;;;20.40;96921.00;;;;5048136;28;20266;-67
2023/09/14 01:07:18;;;;;;;2.60;2.40;;;;;20.50;96918.00;;;;5048712;28;20579;-67
2023/09/14 01:10:09;;;;;;;3.03;2.33;;;;;20.40;96924.00;;;;5044319;28;20212;-66
2023/09/14 01:12:58;;;;;;;3.57;2.20;;;;;20.40;96927.00;;;;5042566;28;20584;-66
2023/09/14 01:15:52;;;;;;;4.93;3.30;;;;;20.50;96929.00;;;;5048218;28;20212;-66
2023/09/14 01:18:46;;;;;;;3.37;2.33;;;;;20.60;96920.00;;;;5048678;28;20220;-66
2023/09/14 01:21:48;;;;;;;4.10;3.77;;;;;20.60;96927.00;;;;5047716;28;20285;-65
2023/09/14 01:24:47;;;;;;;2.57;2.30;;;;;20.60;96919.00;;;;5046700;28;20211;-66
2023/09/14 01:27:38;;;;;;;3.90;2.83;;;;;20.60;96918.00;;;;5049323;28;20212;-66
2023/09/14 01:30:27;;;;;;;3.33;2.87;;;;;20.60;96922.00;;;;5048187;28;20574;-66
2023/09/14 01:33:17;;;;;;;3.03;2.73;;;;;20.50;96920.00;;;;5047105;28;20216;-66
2023/09/14 01:36:11;;;;;;;2.40;2.00;;;;;20.30;96924.00;;;;5044251;28;20204;-65
2023/09/14 01:39:01;;;;;;;2.97;2.20;;;;;20.30;96928.00;;;;5048472;28;20224;-66
2023/09/14 01:41:54;;;;;;;4.50;2.73;;;;;20.10;96922.00;;;;5046662;28;20223;-65
2023/09/14 01:44:45;;;;;;;3.67;2.37;;;;;20.20;96930.00;;;;5046981;28;20672;-66
2023/09/14 01:47:34;;;;;;;3.50;2.83;;;;;20.40;96922.00;;;;5045346;28;20625;-65
2023/09/14 01:50:23;;;;;;;5.67;2.30;;;;;20.50;96928.00;;;;5044085;28;20198;-66
2023/09/14 01:53:12;;;;;;;8.43;2.83;;;;;20.50;96919.00;;;;5048100;28;20201;-65
2023/09/14 01:56:01;;;;;;;3.10;2.73;;;;;20.50;96928.00;;;;5042604;28;20204;-66
2023/09/14 01:58:50;;;;;;;2.87;2.63;;;;;20.20;96921.00;;;;5040244;28;20607;-65
2023/09/14 02:01:41;;;;;;;5.93;2.43;;;;;20.20;96934.00;;;;5047596;28;20239;-64
2023/09/14 02:04:30;;;;;;;2.83;1.90;;;;;20.20;96923.00;;;;5047971;28;20208;-65
2023/09/14 02:07:19;;;;;;;2.83;2.20;;;;;20.40;96921.00;;;;5047605;28;20205;-66
2023/09/14 02:10:09;;;;;;;2.47;2.27;;;;;20.50;96926.00;;;;5043553;28;20207;-65
2023/09/14 02:12:58;;;;;;;6.00;2.17;;;;;20.40;96922.00;;;;5047896;28;20585;-66
2023/09/14 02:15:47;;;;;;;2.33;2.10;;;;;20.10;96932.00;;;;5044320;28;20212;-65
2023/09/14 02:18:37;;;;;;;2.97;2.07;;;;;19.90;96920.00;;;;5046244;28;20235;-66
2023/09/14 02:21:26;;;;;;;3.03;2.20;;;;;20.00;96927.00;;;;5047114;28;20254;-65
2023/09/14 02:24:15;;;;;;;2.43;1.70;;;;;20.10;96923.00;;;;5047174;28;20212;-65
2023/09/14 02:27:05;;;;;;;3.70;2.40;;;;;20.20;96921.00;;;;5043458;28;20204;-65
2023/09/14 02:29:54;;;;;;;4.83;2.43;;;;;20.30;96927.00;;;;5041543;28;20225;-66
2023/09/14 02:32:43;;;;;;;7.03;2.73;;;;;20.20;96922.00;;;;5047291;28;20192;-66
2023/09/14 02:35:33;;;;;;;3.70;2.07;;;;;19.90;96929.00;;;;5047579;28;20204;-65
2023/09/14 02:38:22;;;;;;;7.07;2.57;;;;;19.80;96927.00;;;;5047726;28;20295;-66
2023/09/14 02:41:11;;;;;;;4.53;2.60;;;;;20.00;96937.00;;;;5046905;28;20608;-65
2023/09/14 02:44:00;;;;;;;6.37;2.30;;;;;20.20;96935.00;;;;5046572;28;20695;-65
2023/09/14 02:46:49;;;;;;;2.10;1.90;;;;;20.10;96925.00;;;;5042257;28;20684;-65
2023/09/14 02:49:38;;;;;;;4.03;1.90;;;;;20.10;96927.00;;;;5046012;28;20631;-66
2023/09/14 02:52:29;;;;;;;2.50;2.27;;;;;20.20;96930.00;;;;5045718;28;20731;-66
2023/09/14 02:55:18;;;;;;;5.70;2.50;;;;;20.20;96928.00;;;;5047813;28;20215;-65
2023/09/14 02:58:08;;;;;;;7.17;3.03;;;;;20.20;96920.00;;;;5042173;28;20255;-66
2023/09/14 03:00:57;;;;;;;4.27;2.30;;;;;20.10;96920.00;;;;5040461;28;20601;-66
2023/09/14 03:03:46;;;;;;;2.57;2.23;;;;;20.10;96928.00;;;;5047095;28;20705;-65
2023/09/14 03:06:36;;;;;;;4.17;2.57;;;;;20.20;96920.00;;;;5047867;28;20204;-65
2023/09/14 03:09:26;;;;;;;4.87;2.63;;;;;20.20;96919.00;;;;5047139;28;20232;-65
2023/09/14 03:12:15;;;;;;;3.70;2.23;;;;;20.30;96930.00;;;;5051178;28;20878;-65
2023/09/14 03:15:05;;;;;;;3.10;2.60;;;;;20.10;96927.00;;;;5045736;28;20609;-65
2023/09/14 03:17:54;;;;;;;2.57;2.17;;;;;20.10;96926.00;;;;5050951;28;20216;-66
2023/09/14 03:20:47;;;;;;;2.40;2.13;;;;;20.20;96923.00;;;;5050121;28;20208;-66
2023/09/14 03:23:36;;;;;;;4.97;2.20;;;;;20.20;96926.00;;;;5049670;28;20204;-65
2023/09/14 03:26:27;;;;;;;1.87;1.77;;;;;19.90;96917.00;;;;5050214;28;20224;-65
2023/09/14 03:29:16;;;;;;;2.03;1.83;;;;;19.80;96914.00;;;;5051343;28;20605;-65
2023/09/14 03:32:06;;;;;;;2.90;2.27;;;;;19.80;96916.00;;;;5047740;28;20211;-65
2023/09/14 03:34:55;;;;;;;2.60;2.37;;;;;19.70;96918.00;;;;5042473;28;20680;-65
2023/09/14 03:37:44;;;;;;;2.47;2.17;;;;;19.80;96916.00;;;;5050989;28;20208;-65
2023/09/14 03:40:33;;;;;;;1.70;1.60;;;;;19.60;96915.00;;;;5050221;28;20216;-65
2023/09/14 03:43:23;;;;;;;2.60;2.40;;;;;19.80;96916.00;;;;5050158;28;20213;-64
2023/09/14 03:46:15;;;;;;;4.40;2.20;;;;;20.00;96923.00;;;;5049495;28;20216;-66
2023/09/14 03:49:06;;;;;;;3.33;2.65;;;;;19.90;96927.00;;;;5047635;28;20404;-65
2023/09/14 03:51:55;;;;;;;3.63;2.00;;;;;20.10;96935.00;;;;5045708;28;20255;-66
2023/09/14 03:54:45;;;;;;;5.63;2.23;;;;;20.10;96926.00;;;;5057216;28;20677;-66
2023/09/14 03:57:34;;;;;;;6.07;2.43;;;;;20.10;96926.00;;;;5049980;28;20204;-66
2023/09/14 04:00:24;;;;;;;2.97;2.33;;;;;19.80;96934.00;;;;5047180;28;20573;-66
2023/09/14 04:03:13;;;;;;;1.87;1.77;;;;;19.70;96922.00;;;;5050127;28;20217;-66
2023/09/14 04:06:03;;;;;;;3.37;2.07;;;;;19.50;96921.00;;;;5047912;28;20201;-65
2023/09/14 04:08:52;;;;;;;2.40;2.20;;;;;19.50;96922.00;;;;5044744;28;20229;-65
2023/09/14 04:11:41;;;;;;;3.17;2.33;;;;;19.70;96924.00;;;;5044389;28;20212;-66
2023/09/14 04:14:30;;;;;;;4.83;2.00;;;;;19.80;96936.00;;;;5047575;28;20205;-65
2023/09/14 04:17:20;;;;;;;2.37;1.93;;;;;19.90;96942.00;;;;5048179;28;20880;-65
2023/09/14 04:20:10;;;;;;;3.27;2.10;;;;;19.90;96934.00;;;;5044713;28;20208;-66
2023/09/14 04:22:59;;;;;;;2.90;2.40;;;;;20.00;96945.00;;;;5047475;28;20228;-65
2023/09/14 04:25:49;;;;;;;4.10;2.37;;;;;19.90;96941.00;;;;5044377;28;20215;-66
2023/09/14 04:28:39;;;;;;;5.20;2.20;;;;;19.90;96948.00;;;;5049742;28;20224;-66
2023/09/14 04:31:27;;;;;;;2.10;1.97;;;;;19.90;96952.00;;;;5041806;28;20204;-65
2023/09/14 04:34:18;;;;;;;3.00;2.53;;;;;20.00;96962.00;;;;5048609;28;20265;-65
2023/09/14 04:37:07;;;;;;;3.30;2.27;;;;;19.80;96957.00;;;;5043348;28;20223;-66
2023/09/14 04:39:56;;;;;;;5.20;2.30;;;;;19.50;96968.00;;;;5051641;28;20208;-65
2023/09/14 04:42:45;;;;;;;2.10;1.90;;;;;19.50;96968.00;;;;5048638;28;20228;-66
2023/09/14 04:45:34;;;;;;;2.30;2.10;;;;;19.50;96980.00;;;;5049724;28;20641;-66
2023/09/14 04:48:23;;;;;;;4.17;2.63;;;;;19.80;96966.00;;;;5045362;28;20232;-66
2023/09/14 04:51:14;;;;;;;5.97;2.27;;;;;19.90;96967.00;;;;5053353;28;20205;-66
2023/09/14 04:54:03;;;;;;;5.67;2.23;;;;;19.90;96972.00;;;;5046861;28;20579;-66
2023/09/14 04:56:52;;;;;;;2.03;1.83;;;;;19.80;96977.00;;;;5049218;28;20212;-66
2023/09/14 04:59:41;;;;;;;3.77;2.30;;;;;19.90;96984.00;;;;5051223;28;20224;-66
2023/09/14 05:02:30;;;;;;;3.20;2.07;;;;;19.90;96981.00;;;;5046965;28;20905;-65
2023/09/14 05:05:19;;;;;;;3.83;2.17;;;;;20.00;96990.00;;;;5050858;28;20592;-66
2023/09/14 05:08:09;;;;;;;2.43;1.93;;;;;20.00;96988.00;;;;5044343;28;20247;-65
2023/09/14 05:10:58;;;;;;;4.43;2.60;;;;;20.00;96996.00;;;;5043426;28;20685;-65
2023/09/14 05:13:47;;;;;;;2.80;2.53;;;;;20.00;97000.00;;;;5041148;28;20694;-66
2023/09/14 05:16:36;;;;;;;2.67;2.13;;;;;19.60;97002.00;;;;5048961;28;20204;-66
2023/09/14 05:19:26;;;;;;;2.77;1.97;;;;;19.70;96998.00;;;;5050148;28;20228;-66
2023/09/14 05:22:15;;;;;;;3.97;2.47;;;;;19.50;97001.00;;;;5052037;28;20225;-66
2023/09/14 05:25:06;;;;;;;2.37;2.17;;;;;19.60;97009.00;;;;5042817;28;20204;-66
2023/09/14 05:27:55;;;;;;;2.67;2.07;;;;;19.60;97014.00;;;;5047716;28;20220;-66
2023/09/14 05:30:44;;;;;;;4.03;3.17;;;;;19.60;97012.00;;;;5049863;28;20212;-66
2023/09/14 05:33:33;;;;;;;6.27;2.50;;;;;19.50;97020.00;;;;5048767;28;20193;-66
2023/09/14 05:36:22;;;;;;;4.27;2.17;;;;;19.60;97025.00;;;;5041509;28;20200;-65
2023/09/14 05:39:12;;;;;;;3.03;1.93;;;;;19.80;97016.00;;;;5043605;28;20716;-66
2023/09/14 05:42:03;;;;;;;2.13;1.93;;;;;19.70;97024.00;;;;5041067;28;20676;-66
2023/09/14 05:44:52;;;;;;;7.07;2.13;;;;;19.80;97030.00;;;;5041928;28;20203;-66
2023/09/14 05:47:41;;;;;;;5.13;2.10;;;;;19.70;97026.00;;;;5043734;28;20216;-66
2023/09/14 05:50:30;;;;;;;3.47;2.17;;;;;19.80;97031.00;;;;5046838;28;20200;-65
2023/09/14 05:53:19;;;;;;;3.03;2.33;;;;;19.70;97025.00;;;;5050440;28;20216;-66
2023/09/14 05:56:08;;;;;;;2.30;2.10;;;;;19.60;97026.00;;;;5042451;28;20712;-65
2023/09/14 05:58:59;;;;;;;6.80;2.10;;;;;19.50;97030.00;;;;5041835;28;20635;-66
2023/09/14 06:01:48;;;;;;;4.53;2.13;;;;;19.60;97021.00;;;;5051609;28;20204;-65
2023/09/14 06:04:37;;;;;;;1.60;1.50;;;;;19.70;97033.00;;;;5055738;28;20227;-66
2023/09/14 06:07:26;;;;;;;5.17;2.40;;;;;19.70;97026.00;;;;5051586;28;20209;-66
2023/09/14 06:10:15;;;;;;;1.67;1.57;;;;;19.70;97028.00;;;;5048293;28;20211;-65
2023/09/14 06:13:05;;;;;;;2.40;2.20;;;;;19.90;97028.00;;;;5048580;28;20201;-66
2023/09/14 06:15:55;;;;;;;2.77;2.33;;;;;19.80;97033.00;;;;5047604;28;20215;-66
2023/09/14 06:18:44;;;;;;;2.60;1.90;;;;;19.80;97028.00;;;;5047854;28;20604;-66
2023/09/14 06:21:35;;;;;;;3.17;1.97;;;;;19.90;97033.00;;;;5047290;28;20227;-66
2023/09/14 06:24:24;;;;;;;2.20;2.00;;;;;20.10;97027.00;;;;5048383;28;20220;-65
2023/09/14 06:27:13;;;;;;;2.80;1.80;;;;;20.10;97027.00;;;;5042127;28;20235;-66
2023/09/14 06:30:04;;;;;;;2.37;2.10;;;;;20.00;97033.00;;;;5049831;28;20212;-66
2023/09/14 06:32:54;;;;;;;1.67;1.57;;;;;19.90;97033.00;;;;5046009;28;20200;-65
2023/09/14 06:35:43;;;;;;;3.30;1.77;;;;;20.30;97039.00;;;;5055261;28;20204;-66
2023/09/14 06:38:32;;;;;;;5.67;2.83;;;;;20.50;97037.00;;;;5048454;28;20224;-66
2023/09/14 06:41:21;;;;;;;3.27;1.77;;;;;20.30;97042.00;;;;5045241;28;20294;-66
2023/09/14 06:44:10;;;;;;;5.87;1.97;;;;;20.40;97044.00;;;;5047149;28;20273;-67
2023/09/14 06:47:01;;;;;;;2.30;1.70;;;;;20.70;97048.00;;;;5051974;28;20204;-66
2023/09/14 06:49:51;;;;;;;1.93;1.57;;;;;21.00;97043.00;;;;5044448;28;20596;-66
2023/09/14 06:52:40;;;;;;;2.10;1.70;;;;;21.00;97042.00;;;;5050541;28;20204;-66
2023/09/14 06:55:29;;;;;;;1.60;1.40;;;;;20.70;97044.00;;;;5050661;28;20201;-66
2023/09/14 06:58:18;;;;;;;1.80;1.30;;;;;21.00;97050.00;;;;5054880;28;20223;-66
2023/09/14 07:01:07;;;;;;;1.40;1.30;;;;;21.10;97047.00;;;;5047126;28;20589;-65
2023/09/14 07:03:56;;;;;;;3.93;1.80;;;;;21.20;97050.00;;;;5049011;28;20251;-66
2023/09/14 07:06:48;;;;;;;2.90;1.97;;;;;21.40;97053.00;;;;5053041;28;20282;-65
2023/09/14 07:09:37;;;;;;;3.57;1.97;;;;;21.20;97042.00;;;;5053074;28;20227;-68
2023/09/14 07:12:26;;;;;;;4.53;2.50;;;;;21.00;97046.00;;;;5050223;28;20205;-69
2023/09/14 07:15:15;;;;;;;2.27;2.00;;;;;21.20;97049.00;;;;5054172;28;20208;-69
2023/09/14 07:18:05;;;;;;;7.00;2.17;;;;;21.40;97052.00;;;;5040627;28;20221;-68
2023/09/14 07:20:55;;;;;;;2.93;2.20;;;;;21.50;97061.00;;;;5044191;28;20205;-69
2023/09/14 07:23:46;;;;;;;2.17;1.60;;;;;21.20;97069.00;;;;5040918;28;20228;-69
2023/09/14 07:26:36;;;;;;;4.73;2.37;;;;;21.60;97070.00;;;;5050345;28;20231;-67
2023/09/14 07:29:25;;;;;;;7.03;2.23;;;;;21.90;97072.00;;;;5054834;28;20221;-70
2023/09/14 07:32:14;;;;;;;4.10;2.67;;;;;21.60;97076.00;;;;5045526;28;20208;-69
2023/09/14 07:35:03;;;;;;;4.60;1.97;;;;;21.80;97081.00;;;;5038211;28;20204;-69
2023/09/14 07:37:52;;;;;;;2.23;1.80;;;;;21.80;97086.00;;;;5028219;28;20229;-69
2023/09/14 07:40:43;;;;;;;2.57;1.80;;;;;22.10;97093.00;;;;5049450;28;20223;-68
2023/09/14 07:43:32;;;;;;;2.77;2.20;;;;;22.30;97098.00;;;;5050542;28;20255;-68
2023/09/14 07:46:21;;;;;;;4.47;3.63;;;;;22.40;97092.00;;;;5050330;28;20216;-69
2023/09/14 07:49:10;;;;;;;3.93;2.90;;;;;22.80;97099.00;;;;5046122;28;20225;-69
2023/09/14 07:51:59;;;;;;;4.30;3.90;;;;;23.10;97098.00;;;;5041557;28;20204;-70
2023/09/14 07:54:48;;;;;;;5.03;3.20;;;;;23.10;97105.00;;;;5050391;28;20200;-69
2023/09/14 07:57:39;;;;;;;4.67;3.20;;;;;23.20;97122.00;;;;5047862;28;20211;-69
2023/09/14 08:00:28;;;;;;;5.73;3.13;;;;;23.20;97115.00;;;;5049838;28;20569;-68
2023/09/14 08:03:17;;;;;;;4.93;2.50;;;;;23.40;97123.00;;;;5050259;28;20221;-68
2023/09/14 08:06:06;;;;;;;3.20;2.57;;;;;23.50;97123.00;;;;5048232;28;20209;-70
2023/09/14 08:08:55;;;;;;;6.40;2.70;;;;;23.70;97133.00;;;;5049112;28;20227;-68
2023/09/14 08:11:44;;;;;;;5.03;3.20;;;;;23.70;97140.00;;;;5048971;28;20227;-69
2023/09/14 08:14:35;;;;;;;3.07;2.77;;;;;23.70;97145.00;;;;5044708;28;20200;-68
2023/09/14 08:17:24;;;;;;;4.53;3.00;;;;;23.70;97156.00;;;;5045669;28;20196;-68
2023/09/14 08:20:13;;;;;;;5.53;2.80;;;;;23.50;97154.00;;;;5050054;28;20216;-68
2023/09/14 08:23:02;;;;;;;3.40;3.10;;;;;23.50;97158.00;;;;5049629;28;20704;-68
2023/09/14 08:25:52;;;;;;;5.67;2.97;;;;;23.50;97158.00;;;;5053881;28;20211;-69
2023/09/14 08:28:41;;;;;;;5.43;3.40;;;;;23.70;97170.00;;;;5048870;28;20216;-69
2023/09/14 08:31:31;;;;;;;3.70;3.13;;;;;23.50;97165.00;;;;5049498;28;20204;-68
2023/09/14 08:34:20;;;;;;;6.37;3.17;;;;;23.70;97168.00;;;;5053063;28;20232;-68
2023/09/14 08:37:10;;;;;;;6.10;3.57;;;;;23.80;97171.00;;;;5049354;28;20261;-68
2023/09/14 08:39:59;;;;;;;7.33;3.53;;;;;24.10;97170.00;;;;5037676;28;20205;-69
2023/09/14 08:42:51;;;;;;;7.90;3.50;;;;;24.20;97166.00;;;;5049385;28;20213;-68
2023/09/14 08:45:41;;;;;;;3.80;2.80;;;;;24.40;97167.00;;;;5049183;28;20224;-68
2023/09/14 08:48:32;;;;;;;9.33;3.37;;;;;24.50;97175.00;;;;5048703;28;20232;-68
2023/09/14 08:51:22;;;;;;;3.10;2.47;;;;;24.60;97174.00;;;;5049957;28;20208;-70
2023/09/14 08:54:11;;;;;;;4.60;3.70;;;;;24.60;97175.00;;;;5044544;28;20208;-69
2023/09/14 08:57:06;;;;;;;2.40;2.20;;;;;24.50;97176.00;;;;5046433;28;20224;-69
2023/09/14 08:59:57;;;;;;;2.77;2.00;;;;;24.50;97176.00;;;;5049077;28;20224;-68
2023/09/14 09:02:48;;;;;;;5.13;2.33;;;;;24.60;97182.00;;;;5049032;28;20204;-69
2023/09/14 09:05:38;;;;;;;3.20;2.43;;;;;24.70;97180.00;;;;5048785;28;20606;-68
2023/09/14 09:08:28;;;;;;;3.10;2.37;;;;;24.80;97176.00;;;;5047612;28;20708;-69
2023/09/14 09:11:17;;;;;;;4.03;2.57;;;;;24.60;97179.00;;;;5051365;28;20208;-69
2023/09/14 09:14:06;;;;;;;2.63;2.30;;;;;24.80;97182.00;;;;5048462;28;20243;-68
2023/09/14 09:16:55;;;;;;;2.20;2.00;;;;;24.70;97178.00;;;;5047373;28;20224;-69
2023/09/14 09:19:49;;;;;;;5.77;2.00;;;;;24.80;97182.00;;;;5036242;28;20223;-69
2023/09/14 09:22:43;;;;;;;2.37;2.17;;;;;25.00;97187.00;;;;5046518;28;20590;-68
2023/09/14 09:25:43;;;;;;;5.80;2.00;;;;;25.10;97195.00;;;;5046893;28;20724;-69
2023/09/14 09:28:32;;;;;;;2.30;1.93;;;;;25.20;97184.00;;;;5048697;28;20224;-68
2023/09/14 09:31:21;;;;;;;3.17;1.90;;;;;25.40;97185.00;;;;5044328;28;20209;-69
2023/09/14 09:34:11;;;;;;;2.87;1.90;;;;;25.40;97183.00;;;;5048138;28;20204;-68
2023/09/14 09:37:00;;;;;;;1.57;1.40;;;;;25.50;97183.00;;;;5042114;28;20204;-69
2023/09/14 09:39:51;;;;;;;2.37;2.17;;;;;25.50;97183.00;;;;5042987;28;20220;-68
2023/09/14 09:42:40;;;;;;;1.73;1.40;;;;;25.70;97181.00;;;;5052445;28;20693;-69
2023/09/14 09:45:29;;;;;;;4.40;2.17;;;;;25.80;97190.00;;;;5046411;28;20223;-68
2023/09/14 09:48:18;;;;;;;4.67;1.97;;;;;25.90;97183.00;;;;5045466;28;20220;-69
2023/09/14 09:51:07;;;;;;;1.70;1.40;;;;;25.40;97189.00;;;;5036874;28;20200;-70
2023/09/14 09:54:06;;;;;;;1.50;1.40;;;;;25.40;97191.00;;;;5044270;28;20204;-69
2023/09/14 09:56:57;;;;;;;1.63;1.30;;;;;25.50;97186.00;;;;5037724;28;20279;-68
2023/09/14 09:59:50;;;;;;;1.03;0.93;;;;;25.30;97189.00;;;;5045550;28;21613;-68
2023/09/14 10:02:39;;;;;;;2.50;1.30;;;;;25.20;97188.00;;;;5046052;28;20227;-69
2023/09/14 10:05:29;;;;;;;1.87;1.40;;;;;25.10;97201.00;;;;5048673;28;20226;-69
2023/09/14 10:08:20;;;;;;;4.77;1.30;;;;;25.00;97198.00;;;;5046952;28;20242;-68
2023/09/14 10:11:09;;;;;;;3.17;1.20;;;;;25.00;97191.00;;;;5044783;28;20201;-69
2023/09/14 10:14:01;;;;;;;2.00;1.63;;;;;25.10;97184.00;;;;5046551;28;20200;-68
2023/09/14 10:16:51;;;;;;;3.37;1.40;;;;;25.00;97195.00;;;;5037883;28;20689;-68
2023/09/14 10:19:41;;;;;;;1.80;1.43;;;;;24.90;97185.00;;;;5047990;28;20273;-68
2023/09/14 10:22:30;;;;;;;1.40;1.20;;;;;25.00;97184.00;;;;5035498;28;20202;-68
2023/09/14 10:25:20;;;;;;;2.30;1.57;;;;;25.20;97187.00;;;;5038004;28;20413;-69
2023/09/14 10:28:10;;;;;;;1.27;1.17;;;;;25.40;97183.00;;;;5037047;28;20216;-69
2023/09/14 10:31:01;;;;;;;1.70;1.00;;;;;25.50;97183.00;;;;5047437;28;20204;-69
2023/09/14 10:33:51;;;;;;;1.30;1.20;;;;;25.70;97173.00;;;;5030337;28;20211;-69
2023/09/14 10:36:42;;;;;;;1.07;0.97;;;;;25.80;97170.00;;;;5044182;28;20192;-68
2023/09/14 10:39:32;;;;;;;1.50;1.40;;;;;25.90;97165.00;;;;5043565;28;20579;-69
2023/09/14 10:42:21;;;;;;;1.50;1.40;;;;;26.20;97168.00;;;;5045878;28;20237;-70
2023/09/14 10:45:11;;;;;;;1.20;1.10;;;;;26.70;97159.00;;;;5052957;28;20706;-69
2023/09/14 10:48:02;;;;;;;2.47;1.23;;;;;27.30;97154.00;;;;5047132;28;20229;-69
2023/09/14 10:50:52;;;;;;;1.77;1.20;;;;;27.10;97158.00;;;;5047239;28;20213;-69
2023/09/14 10:53:42;;;;;;;1.73;0.87;;;;;27.20;97158.00;;;;5048571;28;20446;-69
2023/09/14 10:56:32;;;;;;;1.47;1.27;;;;;27.60;97156.00;;;;5052205;28;20199;-69
2023/09/14 10:59:21;;;;;;;2.30;1.20;;;;;27.60;97152.00;;;;5042749;28;20221;-69
2023/09/14 11:02:10;;;;;;;0.83;0.80;;;;;27.70;97149.00;;;;5048025;28;20204;-69
2023/09/14 11:05:16;;;;;;;2.57;1.27;;;;;27.80;97150.00;;;;5045968;28;20808;-69
2023/09/14 11:08:06;;;;;;;3.37;1.47;;;;;28.10;97163.00;;;;5047333;28;20280;-69
2023/09/14 11:10:56;;;;;;;1.30;1.20;;;;;28.70;97141.00;;;;5047039;28;20694;-69
2023/09/14 11:13:58;;;;;;;2.60;1.20;;;;;29.10;97141.00;;;;5036666;28;20243;-70
2023/09/14 11:16:48;;;;;;;2.10;1.40;;;;;29.30;97146.00;;;;5038358;28;20235;-69
2023/09/14 11:19:48;;;;;;;1.80;1.20;;;;;28.90;97142.00;;;;5029876;28;20221;-70
2023/09/14 11:22:45;;;;;;;2.77;1.87;;;;;29.30;97134.00;;;;5036596;28;20265;-69
2023/09/14 11:25:36;;;;;;;3.60;2.73;;;;;28.90;97130.00;;;;5038445;28;20226;-69
2023/09/14 11:28:28;;;;;;;1.50;1.27;;;;;30.60;97108.00;;;;5039353;28;20237;-69
2023/09/14 11:31:29;;;;;;;1.77;1.20;;;;;30.00;97144.00;;;;5041294;28;20598;-69
2023/09/14 11:34:31;;;;;;;1.67;1.10;;;;;29.70;97156.00;;;;5041123;28;20243;-69
2023/09/14 11:37:21;;;;;;;1.93;1.20;;;;;29.50;97157.00;;;;5043511;28;20712;-69
2023/09/14 11:40:15;;;;;;;3.40;1.97;;;;;29.40;97160.00;;;;5043498;28;20225;-69
2023/09/14 11:43:21;;;;;;;1.77;1.63;;;;;29.10;97144.00;;;;5043276;28;20215;-69
2023/09/14 11:46:18;;;;;;;2.43;1.50;;;;;29.30;97149.00;;;;5031619;28;20222;-69
2023/09/14 11:49:11;;;;;;;1.37;1.27;;;;;29.40;97155.00;;;;5041915;28;20218;-69
2023/09/14 11:52:04;;;;;;;1.90;1.37;;;;;29.30;97151.00;;;;5043171;28;20292;-69
2023/09/14 11:54:53;;;;;;;2.57;1.53;;;;;28.90;97153.00;;;;5034745;28;20823;-69
2023/09/14 11:57:44;;;;;;;2.43;1.80;;;;;28.60;97147.00;;;;5033755;28;20241;-68
2023/09/14 12:00:38;;;;;;;1.70;1.60;;;;;28.90;97144.00;;;;5034313;28;20776;-69
2023/09/14 12:03:28;;;;;;;1.57;1.40;;;;;29.30;97148.00;;;;5044252;28;20214;-69
2023/09/14 12:06:17;;;;;;;1.80;1.70;;;;;30.70;97093.00;;;;5043915;28;20782;-69
2023/09/14 12:09:07;;;;;;;3.27;1.47;;;;;31.90;97105.00;;;;5036481;28;20225;-70
2023/09/14 12:12:00;;;;;;;1.75;1.48;;;;;33.00;97115.00;;;;5044313;28;20196;-69
2023/09/14 12:14:50;;;;;;;3.33;1.92;;;;;32.10;97138.00;;;;5042822;28;20214;-70
2023/09/14 12:17:39;;;;;;;2.75;1.50;;;;;31.00;97133.00;;;;5048400;28;20195;-69
2023/09/14 12:20:28;;;;;;;2.47;1.65;;;;;31.20;97123.00;;;;5049330;28;20204;-69
2023/09/14 12:23:17;;;;;;;1.35;1.25;;;;;31.00;97141.00;;;;5051782;28;20214;-69
2023/09/14 12:26:07;;;;;;;1.65;1.50;;;;;30.80;97133.00;;;;5048654;28;20741;-69
2023/09/14 12:28:57;;;;;;;2.90;1.20;;;;;30.80;97127.00;;;;5039927;28;20231;-69
2023/09/14 12:31:48;;;;;;;3.00;1.45;;;;;29.50;97126.00;;;;5050568;28;20229;-68
2023/09/14 12:34:37;;;;;;;1.50;1.27;;;;;29.20;97119.00;;;;5049890;28;20198;-69
2023/09/14 12:37:27;;;;;;;2.63;1.70;;;;;28.90;97119.00;;;;5039061;28;20251;-68
2023/09/14 12:40:16;;;;;;;1.50;1.40;;;;;29.10;97119.00;;;;5039630;28;20207;-68
2023/09/14 12:43:05;;;;;;;1.43;1.33;;;;;29.00;97119.00;;;;5049411;28;20223;-68
2023/09/14 12:45:54;;;;;;;2.67;1.60;;;;;29.30;97124.00;;;;5049818;28;20224;-68
2023/09/14 12:48:45;;;;;;;1.83;1.50;;;;;28.90;97121.00;;;;5047753;28;20222;-68
2023/09/14 12:51:34;;;;;;;1.10;1.00;;;;;28.90;97121.00;;;;5046302;28;20332;-68
2023/09/14 12:54:28;;;;;;;2.20;1.37;;;;;28.20;97116.00;;;;5048516;28;20203;-68
2023/09/14 12:57:19;;;;;;;1.33;1.23;;;;;28.60;97123.00;;;;5044483;28;20207;-68
2023/09/14 13:00:11;;;;;;;1.77;1.67;;;;;28.40;97121.00;;;;5042928;28;20214;-68
2023/09/14 13:03:01;;;;;;;1.67;1.57;;;;;28.60;97123.00;;;;5048470;28;20211;-68
2023/09/14 13:05:54;;;;;;;1.60;1.50;;;;;28.40;97133.00;;;;5049594;28;20239;-68
2023/09/14 13:08:45;;;;;;;1.27;1.17;;;;;28.20;97131.00;;;;5052558;28;20235;-68
2023/09/14 13:11:36;;;;;;;4.00;1.47;;;;;28.30;97129.00;;;;5048652;28;20625;-66
2023/09/14 13:14:25;;;;;;;1.73;1.63;;;;;27.40;97119.00;;;;5038087;28;20600;-67
2023/09/14 13:17:21;;;;;;;2.00;1.60;;;;;27.70;97128.00;;;;5050918;28;20209;-67
2023/09/14 13:20:11;;;;;;;1.90;1.57;;;;;27.70;97116.00;;;;5046296;28;20203;-67
2023/09/14 13:23:03;;;;;;;2.13;1.70;;;;;27.50;97105.00;;;;5040940;28;20215;-67
2023/09/14 13:25:52;;;;;;;2.00;1.83;;;;;27.30;97116.00;;;;5045744;28;20785;-66
2023/09/14 13:28:41;;;;;;;2.60;1.83;;;;;27.20;97120.00;;;;5052385;28;20253;-66
2023/09/14 13:31:30;;;;;;;1.60;1.50;;;;;27.40;97115.00;;;;5048547;28;20198;-65
2023/09/14 13:34:19;;;;;;;1.83;1.73;;;;;27.30;97117.00;;;;5044373;28;20206;-66
2023/09/14 13:37:08;;;;;;;1.73;1.63;;;;;27.40;97119.00;;;;5046056;28;20199;-67
2023/09/14 13:39:59;;;;;;;3.03;1.60;;;;;27.30;97122.00;;;;5041021;28;20207;-66
2023/09/14 13:42:49;;;;;;;2.93;2.00;;;;;27.30;97125.00;;;;5046567;28;20244;-66
2023/09/14 13:45:38;;;;;;;1.77;1.37;;;;;27.30;97126.00;;;;5052293;28;20864;-66
2023/09/14 13:48:27;;;;;;;2.23;2.03;;;;;27.20;97123.00;;;;5048716;28;20219;-67
2023/09/14 13:51:17;;;;;;;2.27;1.87;;;;;27.20;97130.00;;;;5042170;28;20205;-66
2023/09/14 13:54:06;;;;;;;1.70;1.60;;;;;27.40;97122.00;;;;5033639;28;20210;-67
2023/09/14 13:56:56;;;;;;;1.90;1.80;;;;;27.30;97123.00;;;;5038462;28;20701;-67
2023/09/14 13:59:49;;;;;;;2.50;2.30;;;;;27.30;97122.00;;;;5039967;28;20217;-67
2023/09/14 14:02:41;;;;;;;2.10;2.00;;;;;27.20;97134.00;;;;5040086;28;20213;-66
2023/09/14 14:05:30;;;;;;;5.83;2.33;;;;;27.10;97126.00;;;;5048242;28;20654;-66
2023/09/14 14:08:19;;;;;;;2.43;2.23;;;;;27.00;97124.00;;;;5043932;28;20308;-66
2023/09/14 14:11:08;;;;;;;2.37;2.17;;;;;27.10;97132.00;;;;5047404;28;20205;-66
2023/09/14 14:13:58;;;;;;;3.73;2.40;;;;;27.00;97125.00;;;;5043861;28;20561;-66